Ambrose, North Dakota
Current Conditions -  °F | °C
As of 6:35 PM on Thursday 27 Nov 2014 (Local Time) from KD50 Reporting Station
Light Snow Light Snow  
Wind Chill:   Ceiling: 1300
Heat Index: 14°   Visibility: 5mi
Dew Point: 14°   Wind: 13mph
Humidity: 100%   Direction: 90°E
Pressure: 29.91"   Gusts: NA
Location:  48.95°N, 103.48°W
Report Text: KD50 280035Z AUTO 09011KT 5SM -SN FEW002 BKN013 OVC020 M10/M10 A2991 RMK AO2
Loading
Personal Weather Stations






























Interactive Weather Map New forecast layout! Learn more

10-Day Weather Forecast

Advertisements
Track Severe Weather on mobile